Time;durP1;ratioP1;P1;durP2;ratioP2;P2;SDS_P1;SDS_P2;PMS_P1;PMS_P2;Temp;Humidity;BMP_temperature;BMP_pressure;BME280_temperature;BME280_humidity;BME280_pressure;Samples;Min_cycle;Max_cycle;Signal;HPM_P1;HPM_P2
2021/03/18 00:00:11;;;;;;;4.85;3.83;;;7.60;58.10;;;;;;2064358;28;20117;-61
2021/03/18 00:01:33;;;;;;;4.07;3.67;;;7.60;58.20;;;;;;2059262;28;20398;-61
2021/03/18 00:02:54;;;;;;;4.25;3.88;;;7.60;58.20;;;;;;2060725;28;20034;-60
2021/03/18 00:04:17;;;;;;;4.97;3.83;;;7.60;58.20;;;;;;2064343;28;20228;-60
2021/03/18 00:05:39;;;;;;;5.40;4.13;;;7.60;58.30;;;;;;2061827;28;20018;-60
2021/03/18 00:07:00;;;;;;;5.40;4.20;;;7.60;58.80;;;;;;2062913;28;20035;-60
2021/03/18 00:08:21;;;;;;;4.50;3.80;;;7.60;58.30;;;;;;2062541;28;20474;-60
2021/03/18 00:09:42;;;;;;;5.80;3.90;;;7.60;58.30;;;;;;2066536;28;20034;-60
2021/03/18 00:11:07;;;;;;;5.65;4.00;;;7.50;58.30;;;;;;2065609;28;20474;-61
2021/03/18 00:12:28;;;;;;;4.25;3.85;;;7.50;58.40;;;;;;2069008;28;20037;-60
2021/03/18 00:13:49;;;;;;;4.43;4.03;;;7.50;58.20;;;;;;2062957;28;20045;-61
2021/03/18 00:15:10;;;;;;;5.00;3.83;;;7.50;58.20;;;;;;2068474;28;20046;-59
2021/03/18 00:16:31;;;;;;;5.40;4.20;;;7.50;58.30;;;;;;2054512;28;20789;-61
2021/03/18 00:17:52;;;;;;;4.68;4.00;;;7.50;58.30;;;;;;2062739;28;20034;-59
2021/03/18 00:19:13;;;;;;;4.68;4.10;;;7.50;58.30;;;;;;2060495;28;20134;-59
2021/03/18 00:20:34;;;;;;;5.35;4.15;;;7.50;58.30;;;;;;2061618;28;20554;-60
2021/03/18 00:21:55;;;;;;;4.50;3.95;;;7.50;58.30;;;;;;2061955;28;20038;-59
2021/03/18 00:23:16;;;;;;;5.90;4.00;;;7.50;58.30;;;;;;2064530;28;20042;-60
2021/03/18 00:24:37;;;;;;;5.32;3.90;;;7.40;58.30;;;;;;2066828;28;21273;-60
2021/03/18 00:25:59;;;;;;;6.55;4.15;;;7.40;58.40;;;;;;2064380;28;20069;-61
2021/03/18 00:27:20;;;;;;;4.65;4.22;;;7.40;58.40;;;;;;2067199;28;20480;-61
2021/03/18 00:28:41;;;;;;;6.25;4.05;;;7.40;58.40;;;;;;2063597;28;20065;-59
2021/03/18 00:30:03;;;;;;;4.30;3.85;;;7.40;58.40;;;;;;2064824;28;20206;-61
2021/03/18 00:31:27;;;;;;;3.63;3.33;;;7.40;58.50;;;;;;2061605;28;20049;-61
2021/03/18 00:32:49;;;;;;;5.13;3.92;;;7.40;58.50;;;;;;2058906;28;20307;-61
2021/03/18 00:34:10;;;;;;;7.97;4.60;;;7.40;58.40;;;;;;2064927;28;20018;-61
2021/03/18 00:35:31;;;;;;;9.30;4.53;;;7.40;58.40;;;;;;2063342;28;20045;-62
2021/03/18 00:36:52;;;;;;;4.55;4.15;;;7.30;58.40;;;;;;2058478;28;20481;-61
2021/03/18 00:38:13;;;;;;;7.38;4.45;;;7.30;58.40;;;;;;2063580;28;20091;-62
2021/03/18 00:39:34;;;;;;;7.03;3.95;;;7.30;58.50;;;;;;2062461;28;20061;-59
2021/03/18 00:40:59;;;;;;;4.93;3.85;;;7.30;58.50;;;;;;2062478;28;20026;-60
2021/03/18 00:42:20;;;;;;;4.47;4.00;;;7.30;58.70;;;;;;2067283;28;20120;-60
2021/03/18 00:43:42;;;;;;;4.47;4.00;;;7.30;58.60;;;;;;2064736;28;20054;-62
2021/03/18 00:45:04;;;;;;;4.82;3.88;;;7.30;58.70;;;;;;2063437;28;20049;-60
2021/03/18 00:46:24;;;;;;;5.38;4.07;;;7.30;58.70;;;;;;2068204;28;20480;-60
2021/03/18 00:47:46;;;;;;;4.57;3.92;;;7.30;58.70;;;;;;2064505;28;20061;-60
2021/03/18 00:49:08;;;;;;;4.72;4.03;;;7.20;58.80;;;;;;2061466;28;20050;-60
2021/03/18 00:50:43;;;;;;;4.88;4.38;;;7.20;58.80;;;;;;2061354;28;20117;-59
2021/03/18 00:52:04;;;;;;;5.88;4.20;;;7.20;59.10;;;;;;2059057;28;20527;-60
2021/03/18 00:53:28;;;;;;;6.35;4.18;;;7.20;58.90;;;;;;2063423;28;20040;-60
2021/03/18 00:54:49;;;;;;;4.88;4.22;;;7.20;59.00;;;;;;2058857;28;20038;-59
2021/03/18 00:56:14;;;;;;;8.63;4.10;;;7.20;58.90;;;;;;2062046;28;20043;-59
2021/03/18 00:57:35;;;;;;;5.22;4.03;;;7.10;59.00;;;;;;2068613;28;20025;-59
2021/03/18 00:58:56;;;;;;;4.88;3.70;;;7.10;58.90;;;;;;2063843;28;20520;-60
2021/03/18 01:00:24;;;;;;;5.60;4.68;;;7.20;59.00;;;;;;2066850;28;20041;-60
2021/03/18 01:01:45;;;;;;;5.10;4.32;;;7.10;59.20;;;;;;2060668;28;20376;-60
2021/03/18 01:03:08;;;;;;;6.55;4.57;;;7.10;59.10;;;;;;2057993;28;20043;-61
2021/03/18 01:04:29;;;;;;;4.97;4.40;;;7.10;59.20;;;;;;2053268;28;20434;-60
2021/03/18 01:05:56;;;;;;;8.60;4.90;;;7.10;59.20;;;;;;2058113;28;20131;-60
2021/03/18 01:07:17;;;;;;;5.60;4.13;;;7.10;59.30;;;;;;2065017;28;20018;-61
2021/03/18 01:08:38;;;;;;;6.28;4.63;;;7.10;59.30;;;;;;2067948;28;20026;-60
2021/03/18 01:09:59;;;;;;;6.15;4.40;;;7.10;59.30;;;;;;2062387;28;20039;-60
2021/03/18 01:11:26;;;;;;;4.53;4.10;;;7.10;59.40;;;;;;2067405;28;20033;-61
2021/03/18 01:12:47;;;;;;;7.32;4.63;;;7.10;59.50;;;;;;2064480;28;20029;-60
2021/03/18 01:14:13;;;;;;;7.25;4.35;;;7.10;59.50;;;;;;2066475;28;20339;-60
2021/03/18 01:15:35;;;;;;;8.27;4.53;;;7.10;59.60;;;;;;2063905;28;20045;-61
2021/03/18 01:16:57;;;;;;;7.40;4.40;;;7.00;59.50;;;;;;2060308;28;20105;-60
2021/03/18 01:18:21;;;;;;;4.75;4.20;;;7.00;59.50;;;;;;2063491;28;20034;-60
2021/03/18 01:19:42;;;;;;;4.85;4.05;;;7.00;59.50;;;;;;2062870;28;20033;-60
2021/03/18 01:21:05;;;;;;;4.68;3.88;;;7.00;59.50;;;;;;2063626;28;20048;-60
2021/03/18 01:22:26;;;;;;;4.53;3.63;;;7.00;59.50;;;;;;2069138;28;20045;-60
2021/03/18 01:23:47;;;;;;;9.25;4.60;;;7.00;59.50;;;;;;2061706;28;20026;-60
2021/03/18 01:25:09;;;;;;;6.30;4.10;;;7.00;59.60;;;;;;2061914;28;20095;-62
2021/03/18 01:26:30;;;;;;;5.13;4.28;;;7.00;59.70;;;;;;2066136;28;20060;-60
2021/03/18 01:27:51;;;;;;;5.70;4.35;;;7.00;59.60;;;;;;2065391;28;20097;-59
2021/03/18 01:29:13;;;;;;;6.30;4.13;;;7.00;59.60;;;;;;2064983;28;20472;-60
2021/03/18 01:30:34;;;;;;;4.40;4.00;;;7.00;59.60;;;;;;2063689;28;20053;-60
2021/03/18 01:31:55;;;;;;;4.30;3.92;;;7.00;59.70;;;;;;2056644;28;20039;-62
2021/03/18 01:33:16;;;;;;;4.53;4.13;;;7.00;59.80;;;;;;2064940;28;20095;-60
2021/03/18 01:34:37;;;;;;;4.78;4.22;;;7.00;59.80;;;;;;2065012;28;20137;-60
2021/03/18 01:36:00;;;;;;;7.53;4.28;;;7.00;59.80;;;;;;2064011;28;20042;-60
2021/03/18 01:37:21;;;;;;;6.50;4.32;;;7.00;59.80;;;;;;2056979;28;20035;-60
2021/03/18 01:38:44;;;;;;;5.43;4.20;;;7.00;59.80;;;;;;2064961;28;20412;-60
2021/03/18 01:40:08;;;;;;;5.22;4.20;;;7.00;59.80;;;;;;2062272;28;20038;-60
2021/03/18 01:41:29;;;;;;;4.70;4.20;;;7.00;59.80;;;;;;2065259;28;20041;-60
2021/03/18 01:42:51;;;;;;;5.22;4.13;;;7.00;59.70;;;;;;2064669;28;20058;-60
2021/03/18 01:44:12;;;;;;;4.53;4.13;;;7.10;59.70;;;;;;2066237;28;20033;-59
2021/03/18 01:45:33;;;;;;;6.80;4.38;;;7.00;59.60;;;;;;2062537;28;20026;-60
2021/03/18 01:46:55;;;;;;;7.32;4.70;;;7.00;59.60;;;;;;2056820;28;20110;-60
2021/03/18 01:48:16;;;;;;;7.28;4.32;;;7.00;59.60;;;;;;2064062;28;20084;-59
2021/03/18 01:49:37;;;;;;;5.88;3.97;;;7.00;59.60;;;;;;2065341;28;20489;-60
2021/03/18 01:50:59;;;;;;;7.47;4.28;;;7.00;59.60;;;;;;2064823;28;20045;-59
2021/03/18 01:52:20;;;;;;;7.20;4.53;;;7.00;59.60;;;;;;2068402;28;20049;-59
2021/03/18 01:53:41;;;;;;;7.35;4.60;;;7.00;59.60;;;;;;2062760;28;20026;-60
2021/03/18 01:55:07;;;;;;;6.43;4.57;;;7.00;59.50;;;;;;2061590;28;20311;-61
2021/03/18 01:56:28;;;;;;;5.95;4.40;;;7.00;59.50;;;;;;2060579;28;20030;-60
2021/03/18 01:57:49;;;;;;;5.78;4.50;;;7.00;59.40;;;;;;2064228;28;20030;-60
2021/03/18 01:59:10;;;;;;;4.97;4.43;;;7.00;59.40;;;;;;2065095;28;20072;-59
2021/03/18 02:00:32;;;;;;;5.20;4.45;;;7.00;59.40;;;;;;2060435;28;20062;-60
2021/03/18 02:01:52;;;;;;;5.00;3.97;;;7.00;59.40;;;;;;2060101;28;20414;-59
2021/03/18 02:03:14;;;;;;;4.82;4.32;;;7.00;59.40;;;;;;2065370;28;20038;-60
2021/03/18 02:04:35;;;;;;;5.75;4.72;;;7.00;59.30;;;;;;2063348;28;20033;-60
2021/03/18 02:05:56;;;;;;;9.07;4.78;;;6.90;59.40;;;;;;2064047;28;20464;-60
2021/03/18 02:07:17;;;;;;;10.15;4.95;;;6.90;59.40;;;;;;2066800;28;20532;-60
2021/03/18 02:08:38;;;;;;;8.48;4.75;;;6.90;59.40;;;;;;2066813;28;20560;-61
2021/03/18 02:09:59;;;;;;;7.95;5.57;;;6.90;59.50;;;;;;2061638;28;20112;-60
2021/03/18 02:11:20;;;;;;;6.95;4.72;;;6.90;59.50;;;;;;2070441;28;20462;-60
2021/03/18 02:12:41;;;;;;;6.22;5.05;;;6.90;59.50;;;;;;2070429;28;20040;-59
2021/03/18 02:14:02;;;;;;;6.60;4.57;;;6.90;59.60;;;;;;2067431;28;20030;-60
2021/03/18 02:15:29;;;;;;;9.10;5.00;;;6.90;59.60;;;;;;2060009;28;20034;-59
2021/03/18 02:16:56;;;;;;;7.88;4.50;;;6.80;59.70;;;;;;2059572;28;20466;-59
2021/03/18 02:18:29;;;;;;;7.28;5.15;;;6.90;59.80;;;;;;2065867;28;20037;-60
2021/03/18 02:20:38;;;;;;;7.38;4.60;;;6.80;59.80;;;;;;2060707;28;20026;-60
2021/03/18 02:22:38;;;;;;;7.20;4.55;;;6.80;60.20;;;;;;2069576;28;20046;-59
2021/03/18 02:24:11;;;;;;;3.60;3.30;;;6.80;60.00;;;;;;2069041;28;20468;-60
2021/03/18 02:25:38;;;;;;;9.02;4.60;;;6.80;59.80;;;;;;2062193;28;20468;-60
2021/03/18 02:27:37;;;;;;;5.75;4.50;;;6.80;59.60;;;;;;2064367;28;20374;-59
2021/03/18 02:29:47;;;;;;;6.82;4.57;;;6.80;59.90;;;;;;2062834;28;20026;-60
2021/03/18 02:31:08;;;;;;;;;;;6.80;59.90;;;;;;2043643;28;20051;-59
2021/03/18 02:32:58;;;;;;;6.85;4.45;;;6.80;59.90;;;;;;2063637;28;19909;-60
2021/03/18 02:34:28;;;;;;;7.57;4.57;;;6.80;59.40;;;;;;2065405;28;20120;-60
2021/03/18 02:36:26;;;;;;;7.35;4.70;;;6.80;59.30;;;;;;2063813;28;20069;-60
2021/03/18 02:37:58;;;;;;;5.68;4.20;;;6.80;59.50;;;;;;2060199;28;20050;-60
2021/03/18 02:39:33;;;;;;;4.85;4.30;;;6.80;59.40;;;;;;2068284;28;20365;-60
2021/03/18 02:41:00;;;;;;;8.07;4.30;;;6.80;59.60;;;;;;2063966;28;20492;-60
2021/03/18 02:42:22;;;;;;;6.25;4.63;;;6.80;60.00;;;;;;2070055;28;20049;-61
2021/03/18 02:44:00;;;;;;;8.70;4.85;;;6.80;60.00;;;;;;2062066;28;20466;-60
2021/03/18 02:45:26;;;;;;;8.38;5.25;;;6.70;59.70;;;;;;2063814;28;20406;-59
2021/03/18 02:47:00;;;;;;;8.18;4.57;;;6.70;59.70;;;;;;2065744;28;20037;-59
2021/03/18 02:48:24;;;;;;;6.32;4.65;;;6.70;59.80;;;;;;2060972;28;20064;-60
2021/03/18 02:49:46;;;;;;;8.23;5.20;;;6.70;59.70;;;;;;2061042;28;20027;-60
2021/03/18 02:51:13;;;;;;;7.47;5.00;;;6.70;59.80;;;;;;2058693;28;20038;-60
2021/03/18 02:52:38;;;;;;;5.93;4.60;;;6.70;59.90;;;;;;2062647;28;20034;-61
2021/03/18 02:54:04;;;;;;;6.63;4.93;;;6.80;59.80;;;;;;2064549;28;20038;-60
2021/03/18 02:55:27;;;;;;;7.05;5.40;;;6.70;59.80;;;;;;2061607;28;20449;-60
2021/03/18 02:56:50;;;;;;;5.47;4.32;;;6.70;59.80;;;;;;2062822;28;20026;-60
2021/03/18 02:58:19;;;;;;;7.10;4.65;;;6.70;59.80;;;;;;2063481;28;20042;-59
2021/03/18 02:59:43;;;;;;;4.85;4.45;;;6.70;60.00;;;;;;2064774;28;20030;-60
2021/03/18 03:01:05;;;;;;;6.50;4.88;;;6.70;59.80;;;;;;2056968;28;20043;-60
2021/03/18 03:02:28;;;;;;;5.70;4.70;;;6.70;59.80;;;;;;2059714;28;20030;-60
2021/03/18 03:03:51;;;;;;;6.20;4.30;;;6.70;59.90;;;;;;2064873;28;20170;-61
2021/03/18 03:05:14;;;;;;;5.70;4.63;;;6.70;59.90;;;;;;2063999;28;20411;-60
2021/03/18 03:06:36;;;;;;;8.40;5.00;;;6.70;59.90;;;;;;2067665;28;20373;-60
2021/03/18 03:07:59;;;;;;;8.05;4.88;;;6.70;59.90;;;;;;2064713;28;20426;-60
2021/03/18 03:09:21;;;;;;;5.88;5.35;;;6.70;59.90;;;;;;2067585;28;20097;-59
2021/03/18 03:10:43;;;;;;;5.43;4.50;;;6.70;59.90;;;;;;2067631;28;20026;-59
2021/03/18 03:12:07;;;;;;;8.15;5.03;;;6.70;59.90;;;;;;2062110;28;20548;-61
2021/03/18 03:13:31;;;;;;;7.78;5.63;;;6.70;60.00;;;;;;2066370;28;20038;-60
2021/03/18 03:14:54;;;;;;;5.07;4.47;;;6.70;60.00;;;;;;2059490;28;20045;-58
2021/03/18 03:16:21;;;;;;;6.63;4.82;;;6.70;60.10;;;;;;2067691;28;20512;-59
2021/03/18 03:17:43;;;;;;;8.85;5.00;;;6.70;60.20;;;;;;2069963;28;20095;-61
2021/03/18 03:19:07;;;;;;;7.07;4.88;;;6.70;60.20;;;;;;2065473;28;20050;-60
2021/03/18 03:20:29;;;;;;;6.93;5.07;;;6.70;60.10;;;;;;2062831;28;20019;-61
2021/03/18 03:21:50;;;;;;;7.32;5.18;;;6.70;60.10;;;;;;2059585;28;20120;-60
2021/03/18 03:23:12;;;;;;;6.28;5.07;;;6.70;60.10;;;;;;2069718;28;20033;-60
2021/03/18 03:24:34;;;;;;;7.88;5.22;;;6.70;60.20;;;;;;2064850;28;20088;-60
2021/03/18 03:25:59;;;;;;;5.65;4.93;;;6.70;60.20;;;;;;2063449;28;20045;-61
2021/03/18 03:27:22;;;;;;;9.07;5.10;;;6.70;60.30;;;;;;2069360;28;20036;-60
2021/03/18 03:28:45;;;;;;;7.72;5.40;;;6.70;60.20;;;;;;2062857;28;20046;-60
2021/03/18 03:30:08;;;;;;;6.40;5.55;;;6.70;60.10;;;;;;2064518;28;20113;-60
2021/03/18 03:31:29;;;;;;;6.75;5.15;;;6.70;60.10;;;;;;2064475;28;20089;-60
2021/03/18 03:32:50;;;;;;;5.72;4.75;;;6.70;60.10;;;;;;2065500;28;20474;-60
2021/03/18 03:34:11;;;;;;;7.50;4.97;;;6.70;60.20;;;;;;2065448;28;20112;-60
2021/03/18 03:35:33;;;;;;;5.97;4.85;;;6.80;60.10;;;;;;2067221;28;20087;-60
2021/03/18 03:36:54;;;;;;;5.18;4.68;;;6.70;60.00;;;;;;2065123;28;20457;-60
2021/03/18 03:38:15;;;;;;;5.78;4.65;;;6.80;60.00;;;;;;2063938;28;20026;-60
2021/03/18 03:39:38;;;;;;;5.38;4.72;;;6.80;60.00;;;;;;2067712;28;20030;-60
2021/03/18 03:40:59;;;;;;;6.25;4.95;;;6.80;60.10;;;;;;2062094;28;20038;-60
2021/03/18 03:42:21;;;;;;;7.10;4.78;;;6.70;60.00;;;;;;2069112;28;20026;-60
2021/03/18 03:43:42;;;;;;;6.47;4.90;;;6.80;60.00;;;;;;2064770;28;20469;-60
2021/03/18 03:45:10;;;;;;;5.68;5.13;;;6.80;59.90;;;;;;2059709;28;20132;-60
2021/03/18 03:46:31;;;;;;;8.38;5.22;;;6.70;59.90;;;;;;2066747;28;20052;-60
2021/03/18 03:47:52;;;;;;;6.93;4.90;;;6.80;59.90;;;;;;2066819;28;20032;-61
2021/03/18 03:49:13;;;;;;;5.90;4.53;;;6.80;59.90;;;;;;2065097;28;20484;-60
2021/03/18 03:50:35;;;;;;;7.78;4.88;;;6.80;59.90;;;;;;2062303;28;20050;-60
2021/03/18 03:52:12;;;;;;;6.82;5.22;;;6.80;60.00;;;;;;2061168;28;20142;-60
2021/03/18 03:53:51;;;;;;;7.78;5.22;;;6.80;60.10;;;;;;2068079;28;20018;-60
2021/03/18 03:55:32;;;;;;;6.10;4.88;;;6.80;60.20;;;;;;2063220;28;20050;-61
2021/03/18 03:57:04;;;;;;;7.47;5.55;;;6.80;60.10;;;;;;2063908;28;20031;-60
2021/03/18 03:58:57;;;;;;;8.73;5.68;;;6.80;60.00;;;;;;2061756;28;20097;-60
2021/03/18 04:00:19;;;;;;;7.80;5.00;;;6.80;60.10;;;;;;2066230;28;20582;-60
2021/03/18 04:01:45;;;;;;;6.13;4.95;;;6.80;59.90;;;;;;2068269;28;20030;-60
2021/03/18 04:03:08;;;;;;;8.10;4.95;;;6.80;60.00;;;;;;2064128;28;20105;-60
2021/03/18 04:04:49;;;;;;;8.07;5.15;;;6.80;59.90;;;;;;2064607;28;20058;-60
2021/03/18 04:06:10;;;;;;;6.78;4.72;;;6.80;61.00;;;;;;2062217;28;20031;-60
2021/03/18 04:07:36;;;;;;;8.05;5.03;;;6.80;60.00;;;;;;2065010;28;20035;-61
2021/03/18 04:08:58;;;;;;;6.22;4.75;;;6.80;60.10;;;;;;2060281;28;20369;-60
2021/03/18 04:10:20;;;;;;;5.78;4.82;;;6.90;60.20;;;;;;2069204;28;20026;-61
2021/03/18 04:11:42;;;;;;;7.47;5.03;;;6.90;60.20;;;;;;2064439;28;20023;-61
2021/03/18 04:13:04;;;;;;;8.18;5.28;;;6.90;60.20;;;;;;2069110;28;20041;-60
2021/03/18 04:14:32;;;;;;;8.05;4.90;;;6.90;60.10;;;;;;2061522;28;20053;-60
2021/03/18 04:15:56;;;;;;;8.15;5.00;;;6.90;60.20;;;;;;2062570;28;20038;-60
2021/03/18 04:17:18;;;;;;;6.78;5.50;;;6.90;60.10;;;;;;2064516;28;20038;-60
2021/03/18 04:18:42;;;;;;;8.07;5.10;;;6.90;60.00;;;;;;2066051;28;20037;-61
2021/03/18 04:20:07;;;;;;;5.45;4.93;;;6.90;60.10;;;;;;2062454;28;20492;-60
2021/03/18 04:21:32;;;;;;;6.88;5.20;;;6.90;60.00;;;;;;2063388;28;20034;-61
2021/03/18 04:22:55;;;;;;;9.90;4.82;;;6.90;60.00;;;;;;2060979;28;20048;-61
2021/03/18 04:24:18;;;;;;;5.70;5.13;;;6.90;59.90;;;;;;2063169;28;20034;-61
2021/03/18 04:25:40;;;;;;;7.75;5.22;;;7.00;59.90;;;;;;2062609;28;20030;-60
2021/03/18 04:27:02;;;;;;;8.10;5.30;;;6.90;59.90;;;;;;2063801;28;20056;-60
2021/03/18 04:28:26;;;;;;;6.18;4.75;;;6.90;59.90;;;;;;2063312;28;20457;-60
2021/03/18 04:29:48;;;;;;;5.43;4.80;;;6.90;59.80;;;;;;2061344;28;20034;-60
2021/03/18 04:31:09;;;;;;;7.60;5.03;;;7.00;59.80;;;;;;2065748;28;20037;-60
2021/03/18 04:32:31;;;;;;;8.00;5.38;;;6.90;59.80;;;;;;2068473;28;20385;-60
2021/03/18 04:33:52;;;;;;;5.95;4.97;;;6.90;59.80;;;;;;2059472;28;20039;-60
2021/03/18 04:35:14;;;;;;;11.07;5.18;;;6.90;59.80;;;;;;2064450;28;20049;-60
2021/03/18 04:36:37;;;;;;;10.43;5.57;;;6.90;59.90;;;;;;2062117;28;20425;-61
2021/03/18 04:38:00;;;;;;;9.90;5.43;;;6.90;59.90;;;;;;2062310;28;20362;-60
2021/03/18 04:39:22;;;;;;;7.07;4.97;;;6.90;59.90;;;;;;2063644;28;20116;-60
2021/03/18 04:40:45;;;;;;;7.35;5.80;;;6.90;59.90;;;;;;2059796;28;20022;-61
2021/03/18 04:42:07;;;;;;;6.55;4.80;;;6.90;59.90;;;;;;2062918;28;20073;-60
2021/03/18 04:43:28;;;;;;;6.75;5.28;;;6.90;59.90;;;;;;2066627;28;20034;-60
2021/03/18 04:44:50;;;;;;;10.43;5.80;;;6.90;60.00;;;;;;2061463;28;20088;-60
2021/03/18 04:46:11;;;;;;;6.82;4.97;;;6.90;59.90;;;;;;2067159;28;20115;-60
2021/03/18 04:47:34;;;;;;;5.53;4.88;;;6.90;59.90;;;;;;2067881;28;20023;-60
2021/03/18 04:48:58;;;;;;;8.90;4.97;;;6.90;59.90;;;;;;2061967;28;20633;-61
2021/03/18 04:50:21;;;;;;;7.28;5.53;;;6.90;60.00;;;;;;2067682;28;20030;-61
2021/03/18 04:51:44;;;;;;;6.30;5.00;;;6.90;59.90;;;;;;2069273;28;20033;-61
2021/03/18 04:53:05;;;;;;;8.90;6.20;;;6.90;59.90;;;;;;2066563;28;20481;-60
2021/03/18 04:54:26;;;;;;;6.28;5.10;;;6.90;59.90;;;;;;2061866;28;20026;-60
2021/03/18 04:55:47;;;;;;;10.13;5.60;;;6.90;59.90;;;;;;2063918;28;20057;-60
2021/03/18 04:57:09;;;;;;;10.77;4.95;;;6.90;59.90;;;;;;2065176;28;20033;-61
2021/03/18 04:58:31;;;;;;;8.15;5.00;;;6.90;59.80;;;;;;2065321;28;20068;-60
2021/03/18 04:59:55;;;;;;;7.22;5.25;;;6.90;59.80;;;;;;2064374;28;20045;-60
2021/03/18 05:01:18;;;;;;;9.75;5.47;;;6.90;59.80;;;;;;2067309;28;20115;-61
2021/03/18 05:02:41;;;;;;;5.63;5.03;;;6.90;59.80;;;;;;2066150;28;20030;-60
2021/03/18 05:04:04;;;;;;;7.53;5.55;;;6.90;59.80;;;;;;2065984;28;20038;-60
2021/03/18 05:05:25;;;;;;;8.07;5.30;;;6.90;59.80;;;;;;2065674;28;20038;-60
2021/03/18 05:06:52;;;;;;;11.07;6.20;;;6.90;59.70;;;;;;2061353;28;20041;-61
2021/03/18 05:08:16;;;;;;;7.57;5.43;;;6.80;59.80;;;;;;2065781;28;20077;-59
2021/03/18 05:09:39;;;;;;;7.78;5.60;;;6.80;59.70;;;;;;2068810;28;20575;-61
2021/03/18 05:11:00;;;;;;;6.43;5.28;;;6.80;59.70;;;;;;2065884;28;20038;-61
2021/03/18 05:12:21;;;;;;;10.00;6.10;;;6.80;59.70;;;;;;2064269;28;20116;-59
2021/03/18 05:13:45;;;;;;;7.90;5.22;;;6.80;59.70;;;;;;2069063;28;20041;-60
2021/03/18 05:15:07;;;;;;;6.03;5.20;;;6.80;59.80;;;;;;2063072;28;20038;-60
2021/03/18 05:16:29;;;;;;;9.15;5.50;;;6.80;59.80;;;;;;2059611;28;20401;-58
2021/03/18 05:17:50;;;;;;;11.35;6.20;;;6.80;59.90;;;;;;2064891;28;20032;-58
2021/03/18 05:19:12;;;;;;;7.75;5.18;;;6.80;59.90;;;;;;2064364;28;20087;-61
2021/03/18 05:20:33;;;;;;;7.32;5.32;;;6.80;59.90;;;;;;2060988;28;20034;-61
2021/03/18 05:21:55;;;;;;;6.28;5.25;;;6.80;59.90;;;;;;2064881;28;20039;-60
2021/03/18 05:23:17;;;;;;;9.73;5.30;;;6.80;60.00;;;;;;2065547;28;20037;-60
2021/03/18 05:24:41;;;;;;;7.55;5.90;;;6.80;60.20;;;;;;2063173;28;20038;-60
2021/03/18 05:26:02;;;;;;;10.13;6.40;;;6.80;60.20;;;;;;2063374;28;20134;-60
2021/03/18 05:27:23;;;;;;;6.20;5.60;;;6.80;60.20;;;;;;2061188;28;20034;-60
2021/03/18 05:28:44;;;;;;;6.55;5.68;;;6.70;60.10;;;;;;2062811;28;20034;-60
2021/03/18 05:30:07;;;;;;;6.28;5.60;;;6.70;60.10;;;;;;2062543;28;20097;-60
2021/03/18 05:31:28;;;;;;;10.63;6.57;;;6.80;60.20;;;;;;2063331;28;20031;-60
2021/03/18 05:32:49;;;;;;;7.28;6.22;;;6.80;60.10;;;;;;2061730;28;20131;-60
2021/03/18 05:34:11;;;;;;;8.05;6.13;;;6.70;60.00;;;;;;2059767;28;20034;-59
2021/03/18 05:35:33;;;;;;;7.43;5.65;;;6.70;60.10;;;;;;2062243;28;20034;-59
2021/03/18 05:36:54;;;;;;;7.82;6.00;;;6.80;60.00;;;;;;2058716;28;20031;-60
2021/03/18 05:38:16;;;;;;;7.95;6.60;;;6.70;60.00;;;;;;2070291;28;20033;-60
2021/03/18 05:39:37;;;;;;;7.63;6.28;;;6.70;59.90;;;;;;2070817;28;20460;-60
2021/03/18 05:40:58;;;;;;;9.50;6.18;;;6.70;59.90;;;;;;2057577;28;20173;-60
2021/03/18 05:42:19;;;;;;;8.20;5.93;;;6.70;59.90;;;;;;2068543;28;20025;-60
2021/03/18 05:43:41;;;;;;;9.43;6.47;;;6.70;59.90;;;;;;2064527;28;20034;-60
2021/03/18 05:45:07;;;;;;;8.57;6.07;;;6.70;59.90;;;;;;2064765;28;20022;-60
2021/03/18 05:46:28;;;;;;;10.98;6.57;;;6.70;60.00;;;;;;2064599;28;20105;-60
2021/03/18 05:47:50;;;;;;;10.15;6.95;;;6.70;59.90;;;;;;2067056;28;20180;-60
2021/03/18 05:49:12;;;;;;;8.35;6.28;;;6.70;60.00;;;;;;2071666;28;20030;-60
2021/03/18 05:50:34;;;;;;;9.15;6.70;;;6.70;59.90;;;;;;2063788;28;20334;-60
2021/03/18 05:51:57;;;;;;;6.70;5.65;;;6.70;59.90;;;;;;2063257;28;20035;-60
2021/03/18 05:53:19;;;;;;;6.45;5.85;;;6.70;59.90;;;;;;2066856;28;20026;-60
2021/03/18 05:54:46;;;;;;;13.80;6.60;;;6.70;59.90;;;;;;2068753;28;20332;-59
2021/03/18 05:56:08;;;;;;;8.13;6.03;;;6.70;60.00;;;;;;2066403;28;20064;-60
2021/03/18 05:57:29;;;;;;;10.65;6.18;;;6.70;60.50;;;;;;2066908;28;20030;-60
2021/03/18 05:58:51;;;;;;;6.63;5.57;;;6.70;59.90;;;;;;2065329;28;20113;-60
2021/03/18 06:00:13;;;;;;;8.38;6.45;;;6.70;59.90;;;;;;2067847;28;20034;-60
2021/03/18 06:01:34;;;;;;;7.15;5.80;;;6.70;60.00;;;;;;2069132;28;20033;-60
2021/03/18 06:02:55;;;;;;;10.82;6.53;;;6.70;60.00;;;;;;2066272;28;20037;-61
2021/03/18 06:04:16;;;;;;;8.77;6.22;;;6.70;60.00;;;;;;2066783;28;20386;-60
2021/03/18 06:05:37;;;;;;;8.77;5.82;;;6.70;60.00;;;;;;2068994;28;20095;-60
2021/03/18 06:06:59;;;;;;;9.20;6.10;;;6.70;60.00;;;;;;2067845;28;20042;-60
2021/03/18 06:08:20;;;;;;;8.90;6.18;;;6.70;60.00;;;;;;2064740;28;20098;-60
2021/03/18 06:09:41;;;;;;;11.00;6.93;;;6.70;60.10;;;;;;2066800;28;20034;-60
2021/03/18 06:11:04;;;;;;;8.00;6.60;;;6.70;60.10;;;;;;2068318;28;20045;-60
2021/03/18 06:12:25;;;;;;;7.97;5.88;;;6.70;60.20;;;;;;2065187;28;20386;-60
2021/03/18 06:13:45;;;;;;;10.35;6.88;;;6.70;60.30;;;;;;2063857;28;20110;-59
2021/03/18 06:15:12;;;;;;;8.07;5.90;;;6.70;60.40;;;;;;2067518;28;20038;-60
2021/03/18 06:16:34;;;;;;;10.10;6.28;;;6.70;60.60;;;;;;2063963;28;20513;-60
2021/03/18 06:17:56;;;;;;;11.88;6.45;;;6.70;60.50;;;;;;2067024;28;20054;-60
2021/03/18 06:19:17;;;;;;;8.43;6.53;;;6.70;60.50;;;;;;2070628;28;20037;-60
2021/03/18 06:20:38;;;;;;;10.20;6.32;;;6.70;60.50;;;;;;2067970;28;20544;-60
2021/03/18 06:21:59;;;;;;;9.75;6.50;;;6.70;60.50;;;;;;2063964;28;20393;-59
2021/03/18 06:23:21;;;;;;;11.38;6.93;;;6.70;60.50;;;;;;2065372;28;20034;-60
2021/03/18 06:24:49;;;;;;;8.02;6.50;;;6.70;60.50;;;;;;2064208;28;20066;-60
2021/03/18 06:26:09;;;;;;;10.43;5.95;;;6.70;60.60;;;;;;2069008;28;20214;-60
2021/03/18 06:27:30;;;;;;;8.85;6.60;;;6.80;60.60;;;;;;2067445;28;20133;-60
2021/03/18 06:28:51;;;;;;;9.57;6.60;;;6.80;60.50;;;;;;2065224;28;20038;-60
2021/03/18 06:30:13;;;;;;;7.05;5.97;;;6.80;60.60;;;;;;2067533;28;20042;-60
2021/03/18 06:31:34;;;;;;;8.05;6.68;;;6.80;60.60;;;;;;2068857;28;20018;-60
2021/03/18 06:32:55;;;;;;;7.13;6.00;;;6.80;60.60;;;;;;2065291;28;20049;-60
2021/03/18 06:34:36;;;;;;;9.50;6.68;;;6.80;60.60;;;;;;2070235;28;20389;-60
2021/03/18 06:35:58;;;;;;;7.68;6.00;;;6.80;60.90;;;;;;2066127;28;20045;-60
2021/03/18 06:37:46;;;;;;;9.35;6.95;;;6.80;60.70;;;;;;2066323;28;20036;-60
2021/03/18 06:39:16;;;;;;;10.73;6.13;;;6.80;61.00;;;;;;2065510;28;20103;-60
2021/03/18 06:40:42;;;;;;;7.88;6.45;;;6.80;60.70;;;;;;2066831;28;20030;-60
2021/03/18 06:42:03;;;;;;;7.25;6.38;;;6.90;60.80;;;;;;2065743;28;20034;-59
2021/03/18 06:43:42;;;;;;;7.30;6.40;;;6.80;60.60;;;;;;2065464;28;20039;-60
2021/03/18 06:45:08;;;;;;;7.78;5.72;;;6.90;60.80;;;;;;2064918;28;20126;-60
2021/03/18 06:46:29;;;;;;;8.80;6.15;;;6.90;60.60;;;;;;2069166;28;20029;-60
2021/03/18 06:47:53;;;;;;;8.52;5.88;;;6.90;60.50;;;;;;2063862;28;20339;-60
2021/03/18 06:49:16;;;;;;;8.43;6.15;;;6.90;60.60;;;;;;2068468;28;20038;-60
2021/03/18 06:50:43;;;;;;;8.95;6.32;;;6.90;60.60;;;;;;2065924;28;20134;-59
2021/03/18 06:52:08;;;;;;;8.88;6.75;;;6.90;60.60;;;;;;2065374;28;20023;-60
2021/03/18 06:53:30;;;;;;;7.70;5.65;;;6.90;60.80;;;;;;2067639;28;20031;-60
2021/03/18 06:54:55;;;;;;;11.18;6.10;;;6.90;60.50;;;;;;2060529;28;20031;-60
2021/03/18 06:56:25;;;;;;;9.15;5.93;;;7.00;60.70;;;;;;2067129;28;20034;-60
2021/03/18 06:57:46;;;;;;;;;;;6.90;60.60;;;;;;2063445;28;20043;-60
2021/03/18 06:59:20;;;;;;;7.57;6.00;;;7.00;60.90;;;;;;2065681;28;19910;-60
2021/03/18 07:00:43;;;;;;;6.35;5.75;;;7.00;60.30;;;;;;2063935;28;20077;-60
2021/03/18 07:02:13;;;;;;;11.30;6.22;;;7.00;60.10;;;;;;2066640;28;20062;-60
2021/03/18 07:03:38;;;;;;;8.88;6.80;;;7.00;60.10;;;;;;2063320;28;20045;-60
2021/03/18 07:04:59;;;;;;;7.28;5.72;;;7.00;60.60;;;;;;2062024;28;20030;-60
2021/03/18 07:06:31;;;;;;;10.85;6.15;;;7.00;60.10;;;;;;2065037;28;20057;-60
2021/03/18 07:07:52;;;;;;;7.53;5.90;;;7.00;60.30;;;;;;2065929;28;20336;-59
2021/03/18 07:09:16;;;;;;;7.85;6.28;;;7.00;60.10;;;;;;2060048;28;20034;-59
2021/03/18 07:10:37;;;;;;;8.05;6.30;;;7.00;61.00;;;;;;2064938;28;20030;-60
2021/03/18 07:12:06;;;;;;;8.13;5.80;;;7.00;60.30;;;;;;2061335;28;20560;-60
2021/03/18 07:13:31;;;;;;;8.80;6.38;;;7.00;60.50;;;;;;2066674;28;20145;-60
2021/03/18 07:15:01;;;;;;;8.23;6.05;;;7.00;60.40;;;;;;2063158;28;20454;-60
2021/03/18 07:16:22;;;;;;;8.80;5.80;;;7.00;60.30;;;;;;2068022;28;20030;-59
2021/03/18 07:17:43;;;;;;;7.45;5.75;;;7.00;60.30;;;;;;2064517;28;20053;-61
2021/03/18 07:19:04;;;;;;;7.07;5.80;;;7.00;60.30;;;;;;2066455;28;20043;-60
2021/03/18 07:20:25;;;;;;;7.90;6.25;;;7.00;60.30;;;;;;2066056;28;20049;-60
2021/03/18 07:21:47;;;;;;;7.68;5.85;;;7.00;60.50;;;;;;2057900;28;20034;-60
2021/03/18 07:23:12;;;;;;;10.13;6.28;;;7.00;60.60;;;;;;2065071;28;20076;-60